Time;durP1;ratioP1;P1;durP2;ratioP2;P2;SDS_P1;SDS_P2;PMS_P1;PMS_P2;Temp;Humidity;BMP_temperature;BMP_pressure;BME280_temperature;BME280_humidity;BME280_pressure;Samples;Min_cycle;Max_cycle;Signal;HPM_P1;HPM_P2
2021/04/16 08:54:27;;;;;;;4.93;1.90;;;11.50;92.70;;;;;;6087095;23;20243;-68
2021/04/16 08:56:58;;;;;;;2.37;1.50;;;11.10;93.60;;;;;;6097721;23;20175;-71
2021/04/16 08:59:28;;;;;;;2.87;1.80;;;11.10;93.80;;;;;;6098416;23;20179;-69
2021/04/16 09:01:57;;;;;;;2.70;1.90;;;11.80;93.30;;;;;;6098307;23;20250;-70
2021/04/16 09:04:40;;;;;;;4.30;2.30;;;12.20;92.30;;;;;;6097927;23;20183;-70
2021/04/16 09:07:06;;;;;;;2.53;1.60;;;12.30;91.90;;;;;;6098669;23;20183;-70
2021/04/16 09:09:43;;;;;;;4.63;1.50;;;12.50;91.60;;;;;;6098465;23;20179;-71
2021/04/16 09:12:10;;;;;;;3.97;1.60;;;12.30;91.50;;;;;;6092548;23;20554;-68
2021/04/16 09:14:53;;;;;;;2.63;1.50;;;12.20;91.80;;;;;;6096805;23;20226;-70
2021/04/16 09:17:19;;;;;;;5.70;1.87;;;12.10;91.80;;;;;;6097078;23;20187;-69
2021/04/16 09:20:00;;;;;;;2.67;1.50;;;11.80;92.30;;;;;;6096700;23;20484;-69
2021/04/16 09:22:47;;;;;;;3.17;1.57;;;11.10;93.30;;;;;;6096567;23;20203;-69
2021/04/16 09:25:44;;;;;;;2.90;1.30;;;11.00;93.40;;;;;;6096821;23;20188;-71
2021/04/16 09:28:35;;;;;;;3.50;1.60;;;11.40;93.60;;;;;;6095960;23;20180;-69
2021/04/16 09:31:04;;;;;;;4.63;1.63;;;11.80;93.00;;;;;;6096205;23;20254;-68
2021/04/16 09:33:43;;;;;;;3.17;1.90;;;12.30;92.50;;;;;;6069720;23;20538;-68
2021/04/16 09:36:12;;;;;;;4.33;1.60;;;12.10;92.20;;;;;;6096403;23;20634;-69
2021/04/16 09:39:06;;;;;;;3.20;1.30;;;11.70;92.10;;;;;;6095662;23;20662;-71
2021/04/16 09:41:35;;;;;;;2.33;1.60;;;11.40;92.90;;;;;;6067313;23;20254;-70
2021/04/16 09:44:35;;;;;;;3.97;1.83;;;11.50;92.20;;;;;;6096652;23;20234;-71
2021/04/16 09:47:03;;;;;;;3.77;1.90;;;11.40;92.50;;;;;;6096630;23;20187;-72
2021/04/16 09:49:36;;;;;;;2.80;1.57;;;10.90;93.20;;;;;;6095496;23;20187;-71
2021/04/16 09:52:36;;;;;;;7.27;1.80;;;10.50;93.90;;;;;;6096001;23;20203;-72
2021/04/16 09:55:41;;;;;;;2.93;1.50;;;10.20;93.90;;;;;;6095876;23;20234;-71
2021/04/16 09:58:09;;;;;;;2.90;1.60;;;9.80;94.70;;;;;;6096261;23;20183;-73
2021/04/16 10:00:53;;;;;;;1.70;1.27;;;9.90;95.60;;;;;;6096389;23;20702;-73
2021/04/16 10:03:39;;;;;;;2.73;1.33;;;9.70;94.60;;;;;;6071876;23;20210;-72
2021/04/16 10:06:31;;;;;;;3.17;1.60;;;9.80;94.00;;;;;;6096757;23;20179;-70
2021/04/16 10:09:16;;;;;;;3.87;1.37;;;9.50;95.50;;;;;;6074462;23;20231;-69
2021/04/16 10:11:49;;;;;;;3.17;1.50;;;9.60;93.40;;;;;;6092694;23;20211;-70
2021/04/16 10:14:21;;;;;;;3.77;1.60;;;9.90;94.70;;;;;;6097135;23;20214;-70
2021/04/16 10:16:52;;;;;;;2.30;1.40;;;10.10;93.40;;;;;;6096893;23;20653;-69
2021/04/16 10:19:22;;;;;;;4.77;1.53;;;10.10;93.10;;;;;;6096942;23;20183;-71
2021/04/16 10:21:49;;;;;;;3.00;1.30;;;10.10;92.90;;;;;;6096796;23;20512;-71
2021/04/16 12:39:39;;;;;;;2.57;1.10;;;12.10;78.10;;;;;;6094350;23;20231;-70
2021/04/16 12:42:07;;;;;;;1.80;1.00;;;12.20;77.00;;;;;;6098026;23;20207;-70
2021/04/16 12:44:38;;;;;;;1.30;0.90;;;12.40;77.40;;;;;;6098168;23;20756;-71
2021/04/16 12:47:06;;;;;;;2.13;1.20;;;12.50;76.10;;;;;;6099310;23;20498;-70
2021/04/16 12:49:32;;;;;;;1.37;0.90;;;12.50;76.60;;;;;;6097983;23;20565;-70
2021/04/16 12:51:59;;;;;;;3.47;1.20;;;12.70;76.10;;;;;;6098008;23;20199;-71
2021/04/16 12:54:25;;;;;;;2.60;1.10;;;12.90;77.50;;;;;;6097942;23;20298;-71
2021/04/16 12:56:52;;;;;;;3.80;1.23;;;13.00;75.50;;;;;;6097849;23;20188;-71
2021/04/16 12:59:20;;;;;;;1.63;1.20;;;13.30;74.90;;;;;;6097440;23;20192;-72
2021/04/16 13:01:50;;;;;;;2.93;1.33;;;13.40;76.00;;;;;;6097472;23;20200;-71
2021/04/16 13:04:18;;;;;;;1.43;1.10;;;13.50;74.50;;;;;;6098410;23;20199;-71
2021/04/16 13:06:46;;;;;;;1.53;1.00;;;13.30;73.60;;;;;;6098268;23;20180;-72
2021/04/16 13:09:14;;;;;;;2.80;1.03;;;12.80;73.60;;;;;;6097074;23;20642;-71
2021/04/16 13:11:40;;;;;;;1.67;1.10;;;12.50;74.70;;;;;;6097479;23;20686;-71
2021/04/16 13:14:07;;;;;;;1.90;1.27;;;12.40;75.80;;;;;;6097753;23;20218;-71
2021/04/16 13:16:35;;;;;;;1.47;1.03;;;12.40;75.60;;;;;;6097223;23;20220;-71
2021/04/16 13:19:06;;;;;;;1.53;1.00;;;12.50;76.10;;;;;;6097766;23;20275;-71
2021/04/16 13:21:35;;;;;;;1.73;1.07;;;12.80;74.70;;;;;;6097670;23;20527;-72
2021/04/16 13:24:02;;;;;;;2.03;1.17;;;12.80;76.20;;;;;;6097460;23;20559;-72
2021/04/16 13:26:29;;;;;;;2.07;0.90;;;13.00;74.30;;;;;;6097377;23;20488;-71
2021/04/16 13:28:56;;;;;;;1.67;1.00;;;13.60;75.90;;;;;;6098061;23;20244;-71
2021/04/16 13:31:22;;;;;;;2.40;1.20;;;13.10;74.10;;;;;;6097917;23;20203;-71
2021/04/16 13:33:50;;;;;;;3.50;1.20;;;13.10;74.30;;;;;;6097215;23;20210;-71
2021/04/16 13:36:19;;;;;;;1.87;1.30;;;13.30;71.70;;;;;;6097052;23;20299;-71
2021/04/16 13:38:46;;;;;;;2.17;1.20;;;13.40;73.70;;;;;;6097953;23;20179;-72
2021/04/16 13:41:13;;;;;;;3.37;1.20;;;13.50;72.80;;;;;;6097354;23;20215;-71
2021/04/16 13:43:40;;;;;;;1.23;1.00;;;13.30;74.30;;;;;;6097638;23;20191;-70
2021/04/16 13:46:08;;;;;;;1.77;1.23;;;13.40;71.70;;;;;;6097699;23;20196;-72
2021/04/16 13:48:34;;;;;;;1.40;1.00;;;13.40;71.70;;;;;;6097801;23;20183;-76
2021/04/16 13:51:00;;;;;;;4.40;1.43;;;13.50;72.20;;;;;;6097626;23;20575;-73
2021/04/16 13:53:27;;;;;;;1.57;1.00;;;13.30;73.10;;;;;;6097880;23;20504;-72
2021/04/16 13:55:54;;;;;;;1.13;0.87;;;13.40;72.90;;;;;;6097043;23;20503;-71
2021/04/16 13:58:20;;;;;;;1.30;1.00;;;13.20;73.00;;;;;;6097499;23;20271;-72
2021/04/16 14:00:46;;;;;;;2.17;1.20;;;13.00;74.20;;;;;;6097528;23;20333;-71
2021/04/16 14:03:16;;;;;;;2.40;1.17;;;12.60;73.10;;;;;;6092015;23;20179;-70
2021/04/16 14:05:49;;;;;;;1.97;0.97;;;12.50;73.30;;;;;;6094537;23;20199;-75
2021/04/16 14:08:23;;;;;;;1.70;1.03;;;12.40;72.10;;;;;;6096135;23;20231;-68
2021/04/16 14:10:50;;;;;;;1.10;0.80;;;12.50;72.70;;;;;;6095727;23;20179;-73
2021/04/16 14:13:17;;;;;;;1.53;1.00;;;12.40;72.10;;;;;;6096970;23;20183;-72
2021/04/16 14:15:43;;;;;;;3.30;1.00;;;12.30;72.50;;;;;;6096507;23;20191;-72
2021/04/16 14:18:23;;;;;;;2.27;1.40;;;12.30;73.90;;;;;;6097404;23;20183;-70
2021/04/16 14:20:50;;;;;;;1.43;1.03;;;12.50;72.60;;;;;;6097235;23;20705;-72
2021/04/16 14:23:16;;;;;;;1.83;1.00;;;12.90;72.90;;;;;;6097790;23;20183;-70
2021/04/16 14:25:44;;;;;;;2.37;1.10;;;13.20;73.40;;;;;;6097903;23;20187;-72
2021/04/16 14:28:13;;;;;;;1.10;0.90;;;13.30;72.50;;;;;;6098097;23;20258;-73
2021/04/16 14:30:41;;;;;;;2.17;1.23;;;13.30;72.20;;;;;;6097512;23;20512;-72
2021/04/16 14:33:10;;;;;;;1.83;1.03;;;13.30;72.20;;;;;;6097775;23;20184;-70
2021/04/16 14:35:37;;;;;;;3.83;1.33;;;13.20;72.70;;;;;;6097552;23;20230;-71
2021/04/16 14:38:04;;;;;;;1.97;1.00;;;13.20;73.40;;;;;;6097699;23;20238;-72
2021/04/16 14:40:31;;;;;;;2.50;1.10;;;13.20;72.20;;;;;;6097466;23;20180;-73
2021/04/16 14:42:58;;;;;;;1.40;0.70;;;13.20;72.90;;;;;;6097545;23;20641;-72
2021/04/16 14:45:27;;;;;;;1.60;1.07;;;13.30;72.40;;;;;;6097215;23;20623;-72
2021/04/16 14:47:56;;;;;;;1.73;1.13;;;13.40;72.40;;;;;;6097627;23;20183;-72
2021/04/16 14:50:25;;;;;;;1.43;1.00;;;13.60;70.90;;;;;;6097837;23;20183;-72
2021/04/16 14:52:52;;;;;;;2.70;1.20;;;13.60;71.70;;;;;;6097554;23;20200;-72
2021/04/16 14:55:22;;;;;;;1.40;0.90;;;13.50;70.30;;;;;;6097469;23;20211;-72
2021/04/16 14:57:48;;;;;;;2.50;1.00;;;13.30;71.80;;;;;;6097368;23;20180;-71
2021/04/16 15:00:17;;;;;;;1.70;1.13;;;13.20;71.90;;;;;;6097528;23;20183;-70
2021/04/16 15:02:44;;;;;;;1.80;1.10;;;13.10;72.70;;;;;;6097252;23;20219;-72
2021/04/16 15:05:12;;;;;;;1.33;0.83;;;13.00;72.40;;;;;;6097763;23;20180;-73
2021/04/16 15:07:42;;;;;;;1.63;1.10;;;12.70;72.70;;;;;;6097507;23;20191;-71
2021/04/16 15:10:11;;;;;;;2.00;1.00;;;12.80;74.10;;;;;;6097091;23;20646;-69
2021/04/16 15:12:42;;;;;;;2.63;1.20;;;13.00;72.90;;;;;;6097451;23;20199;-72
2021/04/16 15:15:16;;;;;;;1.63;1.10;;;13.20;71.60;;;;;;6097337;23;20208;-72
2021/04/16 15:17:42;;;;;;;3.10;0.90;;;13.20;71.50;;;;;;6097374;23;20183;-72
2021/04/16 15:20:10;;;;;;;2.17;1.30;;;13.20;72.00;;;;;;6097307;23;20186;-70
2021/04/16 15:22:37;;;;;;;7.63;1.27;;;13.10;73.00;;;;;;6096566;23;20199;-72
2021/04/16 15:25:04;;;;;;;2.30;1.20;;;13.10;73.90;;;;;;6097113;23;20657;-72
2021/04/16 15:27:35;;;;;;;2.03;0.87;;;13.20;72.70;;;;;;6097075;23;20207;-71
2021/04/16 15:30:08;;;;;;;1.93;1.47;;;13.30;72.90;;;;;;6097536;23;20179;-71
2021/04/16 15:32:38;;;;;;;1.93;1.03;;;13.40;72.60;;;;;;6097329;23;20200;-72
2021/04/16 15:46:08;;;;;;;1.30;0.90;;;13.30;73.10;;;;;;6097186;23;20504;-72
2021/04/16 15:48:37;;;;;;;3.03;1.17;;;13.00;72.40;;;;;;6097159;23;20186;-72
2021/04/16 15:51:06;;;;;;;2.23;1.10;;;13.00;73.60;;;;;;6096964;23;20552;-72
2021/04/16 15:53:33;;;;;;;1.23;0.90;;;12.90;73.80;;;;;;6097211;23;20246;-71
2021/04/16 15:56:00;;;;;;;2.07;1.20;;;13.00;74.20;;;;;;6097094;23;20202;-70
2021/04/16 15:58:32;;;;;;;2.90;1.30;;;13.00;74.70;;;;;;6096652;23;20183;-72
2021/04/16 16:01:01;;;;;;;3.03;1.20;;;13.20;74.70;;;;;;6097141;23;20682;-70
2021/04/16 16:03:28;;;;;;;3.10;1.10;;;13.10;74.50;;;;;;6097228;23;20180;-70
2021/04/16 16:05:54;;;;;;;3.30;0.90;;;13.10;74.00;;;;;;6097174;23;20192;-72
2021/04/16 16:08:21;;;;;;;1.17;0.83;;;12.80;73.00;;;;;;6096465;23;20187;-72
2021/04/16 16:10:51;;;;;;;3.10;1.10;;;12.60;73.20;;;;;;6097142;23;20180;-72
2021/04/16 16:13:22;;;;;;;1.43;0.80;;;12.70;73.90;;;;;;6096618;23;20179;-72
2021/04/16 16:15:50;;;;;;;1.97;1.30;;;12.70;72.90;;;;;;6096898;23;20210;-71
2021/04/16 16:18:18;;;;;;;1.80;1.10;;;12.80;73.40;;;;;;6096456;23;20190;-72
2021/04/16 16:20:47;;;;;;;2.17;1.03;;;12.80;73.80;;;;;;6096804;23;20499;-71
2021/04/16 16:23:16;;;;;;;2.53;1.47;;;12.80;73.90;;;;;;6096961;23;20558;-70
2021/04/16 16:25:42;;;;;;;1.53;0.97;;;12.70;73.10;;;;;;6096849;23;20329;-72
2021/04/16 16:28:15;;;;;;;3.40;1.37;;;12.70;73.50;;;;;;6096934;23;20240;-71
2021/04/16 16:30:41;;;;;;;1.60;1.17;;;12.60;74.00;;;;;;6096553;23;20193;-71
2021/04/16 16:33:07;;;;;;;1.33;1.00;;;12.40;74.00;;;;;;6096543;23;20635;-72
2021/04/16 16:35:37;;;;;;;3.23;1.00;;;12.40;74.40;;;;;;6092059;23;20218;-71
2021/04/16 16:38:06;;;;;;;1.97;1.17;;;12.30;74.80;;;;;;6095359;23;20184;-68
2021/04/16 16:40:33;;;;;;;2.03;1.10;;;12.30;74.70;;;;;;6094930;23;20191;-70
2021/04/16 16:43:05;;;;;;;2.17;1.23;;;12.30;75.20;;;;;;6094861;23;20180;-71
2021/04/16 16:45:35;;;;;;;2.13;1.23;;;12.30;75.30;;;;;;6096815;23;20211;-71
2021/04/16 16:48:01;;;;;;;1.67;1.00;;;12.00;74.10;;;;;;6096897;23;20187;-71
2021/04/16 16:50:29;;;;;;;4.10;1.30;;;12.10;74.40;;;;;;6096991;23;20183;-70
2021/04/16 16:52:56;;;;;;;2.33;1.10;;;12.30;74.10;;;;;;6096583;23;20187;-71
2021/04/16 16:55:24;;;;;;;3.13;1.23;;;12.10;75.20;;;;;;6096228;23;20215;-71
2021/04/16 16:57:50;;;;;;;2.50;1.00;;;12.20;75.50;;;;;;6096513;23;20202;-70
2021/04/16 17:00:20;;;;;;;1.83;1.20;;;12.20;76.20;;;;;;6096628;23;20230;-70
2021/04/16 17:02:47;;;;;;;2.20;1.20;;;12.30;75.80;;;;;;6096412;23;20283;-71
2021/04/16 17:05:14;;;;;;;4.83;1.30;;;12.40;76.50;;;;;;6096692;23;20180;-71
2021/04/16 17:07:40;;;;;;;2.27;1.43;;;12.50;75.90;;;;;;6096561;23;20180;-70
2021/04/16 17:10:07;;;;;;;1.87;1.13;;;12.60;75.80;;;;;;6098146;23;20180;-70
2021/04/16 17:12:34;;;;;;;2.17;1.50;;;12.70;74.80;;;;;;6098633;23;20200;-69
2021/04/16 17:15:04;;;;;;;2.17;1.20;;;12.60;74.70;;;;;;6098441;23;20211;-69
2021/04/16 17:17:31;;;;;;;2.67;1.30;;;12.60;75.20;;;;;;6098431;23;20654;-70
2021/04/16 17:19:58;;;;;;;1.90;1.00;;;12.60;74.40;;;;;;6097954;23;20183;-71
2021/04/16 17:22:24;;;;;;;1.43;1.13;;;12.50;74.80;;;;;;6098177;23;20282;-71
2021/04/16 17:24:50;;;;;;;2.40;1.20;;;12.40;75.20;;;;;;6098389;23;20604;-70
2021/04/16 17:27:26;;;;;;;2.07;1.13;;;12.30;74.90;;;;;;6098011;23;20679;-70
2021/04/16 17:29:53;;;;;;;2.70;1.30;;;12.10;75.90;;;;;;6098313;23;20183;-70
2021/04/16 17:32:19;;;;;;;1.83;1.20;;;12.10;76.60;;;;;;6098152;23;20200;-70
2021/04/16 17:34:46;;;;;;;1.93;1.40;;;12.20;76.20;;;;;;6097946;23;20211;-69
2021/04/16 17:37:13;;;;;;;2.03;1.30;;;12.30;76.50;;;;;;6098192;23;20180;-70
2021/04/16 17:39:39;;;;;;;1.67;1.30;;;12.30;77.00;;;;;;6098328;23;20242;-69
2021/04/16 17:42:17;;;;;;;2.67;1.27;;;12.20;77.50;;;;;;6097951;23;20222;-70
2021/04/16 17:44:43;;;;;;;4.77;1.33;;;12.30;78.00;;;;;;6098297;23;20180;-70
2021/04/16 17:47:09;;;;;;;2.07;1.10;;;12.20;78.40;;;;;;6097844;23;20184;-70
2021/04/16 17:49:36;;;;;;;2.43;1.20;;;12.20;78.70;;;;;;6097688;23;20234;-70
2021/04/16 17:52:02;;;;;;;1.90;1.40;;;12.20;78.80;;;;;;6097827;23;20203;-69
2021/04/16 17:54:29;;;;;;;2.57;1.30;;;12.20;79.60;;;;;;6097619;23;20207;-69
2021/04/16 17:56:58;;;;;;;1.47;1.23;;;12.10;79.70;;;;;;6097822;23;20190;-69
2021/04/16 17:59:29;;;;;;;1.90;1.10;;;12.20;80.00;;;;;;6098203;23;20186;-70
2021/04/16 18:01:55;;;;;;;3.77;1.40;;;12.10;79.40;;;;;;6097738;23;20764;-69
2021/04/16 18:04:21;;;;;;;3.93;1.13;;;12.00;79.50;;;;;;6097445;23;20191;-70
2021/04/16 18:06:50;;;;;;;1.57;1.13;;;11.90;79.70;;;;;;6097489;23;20180;-70
2021/04/16 18:09:20;;;;;;;3.47;1.20;;;11.80;79.90;;;;;;6097457;23;20230;-70
2021/04/16 18:11:48;;;;;;;1.70;1.27;;;11.80;80.30;;;;;;6093067;23;20199;-71
2021/04/16 18:14:14;;;;;;;3.00;1.40;;;11.70;80.40;;;;;;6095565;23;20211;-68
2021/04/16 18:16:42;;;;;;;2.60;1.30;;;11.70;80.80;;;;;;6095788;23;20631;-70
2021/04/16 18:19:09;;;;;;;4.37;1.33;;;11.70;81.30;;;;;;6096019;23;20179;-72
2021/04/16 18:21:38;;;;;;;2.70;1.40;;;11.70;81.50;;;;;;6096179;23;20211;-71
2021/04/16 18:24:07;;;;;;;1.80;1.13;;;11.60;81.90;;;;;;6094062;23;20188;-71
2021/04/16 18:26:38;;;;;;;2.27;1.30;;;11.50;82.40;;;;;;6095138;23;20276;-73
2021/04/16 18:29:06;;;;;;;2.47;1.40;;;11.50;82.70;;;;;;6095746;23;20187;-72
2021/04/16 18:31:34;;;;;;;2.30;1.60;;;11.40;83.50;;;;;;6095666;23;20211;-70
2021/04/16 18:34:01;;;;;;;2.80;1.30;;;11.30;83.80;;;;;;6094728;23;20186;-70
2021/04/16 18:36:32;;;;;;;2.90;1.60;;;11.30;83.70;;;;;;6095390;23;20510;-70
2021/04/16 18:39:02;;;;;;;2.60;1.37;;;11.30;83.70;;;;;;6095977;23;20183;-74
2021/04/16 18:41:31;;;;;;;1.40;1.10;;;11.10;84.10;;;;;;6095210;23;20203;-74
2021/04/16 18:44:00;;;;;;;2.47;1.20;;;11.10;84.60;;;;;;6095218;23;20187;-72
2021/04/16 18:46:30;;;;;;;3.40;1.17;;;11.00;84.70;;;;;;6095812;23;20504;-71
2021/04/16 18:48:58;;;;;;;4.47;1.43;;;10.90;84.60;;;;;;6094931;23;20201;-69
2021/04/16 18:51:26;;;;;;;2.67;1.20;;;10.90;84.60;;;;;;6095127;23;20210;-69
2021/04/16 18:53:56;;;;;;;2.40;1.30;;;10.90;84.70;;;;;;6094953;23;20245;-68
2021/04/16 18:56:25;;;;;;;1.93;1.13;;;10.90;85.40;;;;;;6095371;23;20243;-72
2021/04/16 18:58:52;;;;;;;4.70;1.33;;;10.90;85.40;;;;;;6091498;23;20184;-72
2021/04/16 19:01:20;;;;;;;5.20;1.50;;;10.90;85.50;;;;;;6094128;23;20203;-68
2021/04/16 19:03:47;;;;;;;2.53;1.53;;;10.90;85.60;;;;;;6097154;23;20203;-67
2021/04/16 19:06:16;;;;;;;4.70;1.50;;;10.80;86.30;;;;;;6096912;23;20184;-67
2021/04/16 19:08:43;;;;;;;3.43;1.80;;;10.70;86.80;;;;;;6096812;23;20702;-67
2021/04/16 19:11:10;;;;;;;2.60;1.50;;;10.50;88.10;;;;;;6096762;23;20230;-68
2021/04/16 19:13:36;;;;;;;3.00;1.80;;;10.40;89.30;;;;;;6097215;23;20183;-67
2021/04/16 19:16:02;;;;;;;2.80;1.70;;;10.30;90.00;;;;;;6097362;23;20218;-67
2021/04/16 19:18:29;;;;;;;4.50;1.93;;;10.20;90.40;;;;;;6097161;23;20183;-67
2021/04/16 19:20:59;;;;;;;3.03;1.40;;;10.20;90.50;;;;;;6096758;23;20674;-68
2021/04/16 19:23:30;;;;;;;3.73;1.40;;;10.20;90.90;;;;;;6096639;23;20183;-67
2021/04/16 19:26:01;;;;;;;3.57;1.57;;;10.20;90.90;;;;;;6096697;23;20284;-68
2021/04/16 19:28:28;;;;;;;5.73;1.97;;;10.20;91.00;;;;;;6096628;23;20195;-68
2021/04/16 19:30:58;;;;;;;4.27;1.70;;;10.10;91.30;;;;;;6096752;23;20203;-67
2021/04/16 19:33:24;;;;;;;2.20;1.40;;;10.10;91.50;;;;;;6096594;23;20234;-68
2021/04/16 19:35:51;;;;;;;4.60;1.47;;;10.00;91.60;;;;;;6096307;23;20211;-67
2021/04/16 19:38:20;;;;;;;3.13;1.63;;;9.90;92.60;;;;;;6096926;23;20180;-68
2021/04/16 19:40:49;;;;;;;3.50;1.40;;;9.80;92.70;;;;;;6095975;23;20184;-67
2021/04/16 19:43:18;;;;;;;3.43;1.60;;;9.80;93.00;;;;;;6096833;23;20195;-68
2021/04/16 19:45:45;;;;;;;3.60;1.67;;;9.80;93.10;;;;;;6096966;23;20230;-68
2021/04/16 19:54:20;;;;;;;5.97;1.60;;;9.80;93.50;;;;;;6096814;23;20219;-67
2021/04/16 20:16:57;;;;;;;3.23;1.50;;;9.40;94.60;;;;;;6008829;23;20198;-68
2021/04/16 20:19:26;;;;;;;3.07;1.50;;;9.40;94.80;;;;;;6068214;23;20626;-69
2021/04/16 20:21:53;;;;;;;2.47;1.60;;;9.30;95.10;;;;;;6097195;23;20200;-68
2021/04/16 20:24:22;;;;;;;2.40;1.43;;;9.40;95.20;;;;;;6097422;23;20183;-69
2021/04/16 20:26:53;;;;;;;4.10;1.27;;;9.40;95.30;;;;;;6097118;23;20211;-68
2021/04/16 20:29:21;;;;;;;3.07;1.33;;;9.40;95.40;;;;;;6097132;23;20229;-69
2021/04/16 20:31:49;;;;;;;4.70;1.40;;;9.40;95.50;;;;;;6096692;23;20199;-69
2021/04/16 20:34:23;;;;;;;3.20;1.10;;;9.30;95.60;;;;;;6097245;23;20203;-69
2021/04/16 20:36:50;;;;;;;2.97;1.30;;;9.30;95.80;;;;;;6096810;23;20183;-69
2021/04/16 20:39:17;;;;;;;2.87;1.37;;;9.20;96.00;;;;;;6097058;23;20237;-69
2021/04/16 20:41:45;;;;;;;2.87;1.67;;;9.10;96.20;;;;;;6096258;23;20643;-69
2021/04/16 20:44:12;;;;;;;2.83;1.40;;;9.10;96.40;;;;;;6098372;23;20179;-68
2021/04/16 20:46:41;;;;;;;4.40;1.60;;;9.10;96.60;;;;;;6099035;23;20179;-69
2021/04/16 20:49:12;;;;;;;3.90;1.50;;;9.00;96.70;;;;;;6098366;23;20187;-69
2021/04/16 20:51:41;;;;;;;3.73;1.50;;;9.00;96.80;;;;;;6098725;23;20206;-68
2021/04/16 20:54:11;;;;;;;2.63;1.50;;;9.00;97.10;;;;;;6098744;23;20643;-69
2021/04/16 20:56:38;;;;;;;4.47;1.60;;;9.00;97.20;;;;;;6098445;23;20247;-69
2021/04/16 20:59:05;;;;;;;3.23;1.20;;;8.90;97.30;;;;;;6098852;23;20191;-69
2021/04/16 21:01:35;;;;;;;2.73;1.23;;;8.90;97.60;;;;;;6098134;23;20211;-68
2021/04/16 21:04:02;;;;;;;2.13;1.20;;;8.90;97.80;;;;;;6098579;23;20189;-68
2021/04/16 21:06:32;;;;;;;2.80;1.30;;;9.00;97.70;;;;;;6098659;23;20499;-68
2021/04/16 21:09:00;;;;;;;4.83;1.40;;;9.00;97.80;;;;;;6098024;23;20180;-69
2021/04/16 21:11:29;;;;;;;7.43;1.60;;;9.00;98.00;;;;;;6097891;23;20200;-68
